Port Canaveral, Florida
Current Conditions -  °F | °C
As of 3:58 PM on Monday 24 Nov 2014 (Local Time) from KXMR Reporting Station
Clear Clear  
Wind Chill: 80°   Ceiling: Unl
Heat Index: 83°   Visibility: 10mi
Dew Point: 71°   Wind: 13mph
Humidity: 75%   Direction: 150°SSE
Pressure: 29.93"   Gusts: NA
Location:  28.3971°N, 80.6086°W
Report Text: KXMR 242058Z AUTO 15011KT 10SM CLR 27/22 A2993 RMK AO2 SLP138 T02660219 $
Loading
Personal Weather Stations






























Interactive Weather Map New forecast layout! Learn more

10-Day Weather Forecast

Advertisements
Track Severe Weather on mobile